This is the latest recevied weather packets stored in our database for station/object E22ZMG-1. If no packets are shown the sender has not sent any weather packets the latest 10 day(s).
| Time | Temp. | Humidity | Pressure | Rain* | Wind** | Luminosity | Snow |
|---|---|---|---|---|---|---|---|
| 1777951373 | 34.44° C | 49% | 978 hPa | - | - | 0 W/m² | - |
| 1777950746 | 35° C | 50% | 978 hPa | - | - | 0 W/m² | - |
| 1777949587 | 33.89° C | 52% | 978 hPa | - | - | 0 W/m² | - |
| 1777948962 | 33.89° C | 52% | 978 hPa | - | - | 0 W/m² | - |
| 1777948337 | 33.33° C | 54% | 978 hPa | - | - | 0 W/m² | - |
| 1777947713 | 32.78° C | 57% | 978 hPa | - | - | 0 W/m² | - |
| 1777947087 | 32.78° C | 56% | 978 hPa | - | - | 0 W/m² | - |
| 1777946462 | 32.78° C | 57% | 978 hPa | - | - | 0 W/m² | - |
| 1777945838 | 32.22° C | 58% | 978 hPa | - | - | 0 W/m² | - |
| 1777945212 | 32.22° C | 60% | 978 hPa | - | - | 0 W/m² | - |
| 1777944587 | 31.67° C | 61% | 978 hPa | - | - | 0 W/m² | - |
| 1777943960 | 31.11° C | 63% | 978 hPa | - | - | 0 W/m² | - |
| 1777943334 | 30.56° C | 63% | 978 hPa | - | - | 0 W/m² | - |
| 1777942709 | 31.11° C | 62% | 978 hPa | - | - | 0 W/m² | - |
| 1777942085 | 30.56° C | 63% | 978 hPa | - | - | 0 W/m² | - |
| 1777941459 | 30.56° C | 64% | 978 hPa | - | - | 0 W/m² | - |
| 1777940834 | 30.56° C | 62% | 978 hPa | - | - | 0 W/m² | - |
| 1777940209 | 30.56° C | 64% | 978 hPa | - | - | 0 W/m² | - |
| 1777939584 | 30.56° C | 63% | 977 hPa | - | - | 0 W/m² | - |
| 1777938959 | 30.56° C | 63% | 977 hPa | - | - | 0 W/m² | - |
| 1777938334 | 30.56° C | 63% | 977 hPa | - | - | 0 W/m² | - |
| 1777937709 | 30.56° C | 63% | 977 hPa | - | - | 0 W/m² | - |
| 1777937084 | 31.11° C | 61% | 977 hPa | - | - | 0 W/m² | - |
| 1777936459 | 30.56° C | 63% | 977 hPa | - | - | 0 W/m² | - |
| 1777935834 | 30.56° C | 63% | 977 hPa | - | - | 0 W/m² | - |
* Rain since midnight (hover to see other rain measurements)
** Current wind speed in m/s (hover to see current wind gust speed)